createdAt,value
2018-12-14T00:00:18.446Z,2.43
2018-12-14T00:01:18.420Z,2.41
2018-12-14T00:02:18.395Z,2.39
2018-12-14T00:03:18.364Z,2.39
2018-12-14T00:04:18.337Z,2.46
2018-12-14T00:05:18.309Z,2.34
2018-12-14T00:06:18.281Z,2.36
2018-12-14T00:07:18.258Z,2.39
2018-12-14T00:08:18.226Z,2.36
2018-12-14T00:09:18.198Z,2.32
2018-12-14T00:10:18.172Z,2.30
2018-12-14T00:11:18.142Z,2.26
2018-12-14T00:12:18.115Z,2.33
2018-12-14T00:13:18.091Z,2.28
2018-12-14T00:14:18.060Z,2.32
2018-12-14T00:15:18.033Z,2.26
2018-12-14T00:16:18.003Z,2.23
2018-12-14T00:17:17.978Z,2.30
2018-12-14T00:18:17.951Z,2.23
2018-12-14T00:19:17.921Z,2.15
2018-12-14T00:20:17.894Z,2.22
2018-12-14T00:21:17.869Z,2.22
2018-12-14T00:22:17.838Z,2.22
2018-12-14T00:23:17.811Z,2.12
2018-12-14T00:24:17.781Z,2.16
2018-12-14T00:25:17.755Z,2.14
2018-12-14T00:26:17.729Z,2.07
2018-12-14T00:27:17.700Z,2.14
2018-12-14T00:28:17.671Z,2.10
2018-12-14T00:29:17.644Z,2.05
2018-12-14T00:30:17.615Z,2.08
2018-12-14T00:31:17.588Z,2.08
2018-12-14T00:32:17.560Z,1.98
2018-12-14T00:33:17.533Z,2.04
2018-12-14T00:34:17.505Z,2.00
2018-12-14T00:35:17.477Z,2.03
2018-12-14T00:36:17.448Z,2.07
2018-12-14T00:37:17.422Z,2.07
2018-12-14T00:38:17.394Z,2.03
2018-12-14T00:39:17.365Z,2.03
2018-12-14T00:40:17.340Z,2.04
2018-12-14T00:41:17.310Z,2.05
2018-12-14T00:42:17.286Z,2.07
2018-12-14T00:43:17.253Z,1.98
2018-12-14T00:44:17.226Z,2.05
2018-12-14T00:45:17.199Z,1.97
2018-12-14T00:46:17.176Z,1.97
2018-12-14T00:47:17.142Z,2.00
2018-12-14T00:48:17.114Z,2.05
2018-12-14T00:49:17.089Z,2.05
2018-12-14T00:50:17.059Z,2.00
2018-12-14T00:51:17.039Z,1.86
2018-12-14T00:52:17.004Z,1.95
2018-12-14T00:53:16.976Z,1.88
2018-12-14T00:54:16.950Z,1.86
2018-12-14T00:55:16.918Z,1.88
2018-12-14T00:56:16.892Z,1.89
2018-12-14T00:57:16.863Z,1.85
2018-12-14T00:58:16.835Z,1.85
2018-12-14T00:59:16.807Z,1.92
2018-12-14T01:00:16.779Z,1.85
2018-12-14T01:01:16.757Z,1.86
2018-12-14T01:02:16.724Z,1.84
2018-12-14T01:03:16.696Z,1.84
2018-12-14T01:04:16.668Z,1.89
2018-12-14T01:05:16.641Z,1.89
2018-12-14T01:06:16.613Z,2.00
2018-12-14T01:07:16.583Z,1.88
2018-12-14T01:08:16.556Z,2.03
2018-12-14T01:09:16.532Z,2.03
2018-12-14T01:10:16.501Z,1.86
2018-12-14T01:11:16.471Z,1.89
2018-12-14T01:12:16.444Z,1.93
2018-12-14T01:13:16.417Z,1.95
2018-12-14T01:14:16.390Z,1.97
2018-12-14T01:15:16.365Z,1.92
2018-12-14T01:16:16.333Z,1.95
2018-12-14T01:17:16.322Z,1.92
2018-12-14T01:18:16.277Z,1.92
2018-12-14T01:19:16.249Z,1.85
2018-12-14T01:20:16.220Z,2.00
2018-12-14T01:21:16.194Z,1.93
2018-12-14T01:22:16.166Z,1.93
2018-12-14T01:23:52.079Z,1.92
2018-12-14T01:24:16.115Z,1.95
2018-12-14T01:25:16.083Z,1.93
2018-12-14T01:26:16.055Z,1.95
2018-12-14T01:27:16.027Z,1.88
2018-12-14T01:28:15.999Z,1.86
2018-12-14T01:29:15.972Z,1.86
2018-12-14T01:30:15.943Z,1.95
2018-12-14T01:31:15.915Z,1.95
2018-12-14T01:32:15.886Z,1.86
2018-12-14T01:33:15.860Z,1.89
2018-12-14T01:34:15.832Z,1.89
2018-12-14T01:35:15.803Z,1.95
2018-12-14T01:36:15.774Z,1.92
2018-12-14T01:37:15.747Z,2.01
2018-12-14T01:38:15.719Z,1.88
2018-12-14T01:39:15.693Z,1.89
2018-12-14T01:40:15.665Z,1.92
2018-12-14T01:41:15.636Z,1.89
2018-12-14T01:42:15.608Z,1.93
2018-12-14T01:43:15.579Z,1.92
2018-12-14T01:44:15.559Z,1.98
2018-12-14T01:45:15.524Z,1.92
2018-12-14T01:46:15.497Z,1.89
2018-12-14T01:47:15.468Z,1.88
2018-12-14T01:48:15.441Z,1.85
2018-12-14T01:49:15.413Z,1.93
2018-12-14T01:50:15.384Z,1.85
2018-12-14T01:51:15.357Z,1.88
2018-12-14T01:52:15.328Z,1.89
2018-12-14T01:53:15.301Z,1.95
2018-12-14T01:54:15.272Z,1.78
2018-12-14T01:55:15.244Z,1.82
2018-12-14T01:56:15.216Z,1.76
2018-12-14T01:57:15.188Z,1.74
2018-12-14T01:58:15.160Z,1.76
2018-12-14T01:59:15.135Z,1.75
2018-12-14T02:00:15.106Z,1.75
2018-12-14T02:01:15.075Z,1.64
2018-12-14T02:02:15.048Z,1.78
2018-12-14T02:03:15.020Z,1.71
2018-12-14T02:04:14.991Z,1.76
2018-12-14T02:05:14.965Z,1.79
2018-12-14T02:06:14.936Z,1.75
2018-12-14T02:07:14.906Z,1.70
2018-12-14T02:08:14.881Z,1.74
2018-12-14T02:09:14.853Z,1.78
2018-12-14T02:10:14.826Z,1.76
2018-12-14T02:11:14.796Z,1.75
2018-12-14T02:12:14.766Z,1.78
2018-12-14T02:13:14.738Z,1.76
2018-12-14T02:14:14.712Z,1.74
2018-12-14T02:15:14.681Z,1.78
2018-12-14T02:16:14.655Z,1.75
2018-12-14T02:17:14.626Z,1.68
2018-12-14T02:18:14.629Z,1.74
2018-12-14T02:19:14.569Z,1.75
2018-12-14T02:20:14.542Z,1.78
2018-12-14T02:21:14.513Z,1.64
2018-12-14T02:22:14.488Z,1.61
2018-12-14T02:23:14.457Z,1.67
2018-12-14T02:24:14.429Z,1.60
2018-12-14T02:25:14.402Z,1.71
2018-12-14T02:26:14.375Z,1.74
2018-12-14T02:27:14.345Z,1.66
2018-12-14T02:28:14.316Z,1.66
2018-12-14T02:29:14.290Z,1.60
2018-12-14T02:30:14.262Z,1.64
2018-12-14T02:31:14.234Z,1.67
2018-12-14T02:32:14.205Z,1.63
2018-12-14T02:33:14.183Z,1.63
2018-12-14T02:34:14.149Z,1.66
2018-12-14T02:35:14.120Z,1.63
2018-12-14T02:36:14.093Z,1.63
2018-12-14T02:37:14.065Z,1.58
2018-12-14T02:38:14.038Z,1.67
2018-12-14T02:39:14.008Z,1.61
2018-12-14T02:40:13.979Z,1.60
2018-12-14T02:41:13.952Z,1.57
2018-12-14T02:42:19.285Z,1.63
2018-12-14T02:43:13.896Z,1.60
2018-12-14T02:44:13.867Z,1.53
2018-12-14T02:45:13.839Z,1.61
2018-12-14T02:46:13.813Z,1.63
2018-12-14T02:47:13.782Z,1.56
2018-12-14T02:48:13.754Z,1.56
2018-12-14T02:49:13.728Z,1.57
2018-12-14T02:50:13.699Z,1.58
2018-12-14T02:51:13.670Z,1.61
2018-12-14T02:52:13.642Z,1.58
2018-12-14T02:53:13.613Z,1.61
2018-12-14T02:54:13.612Z,1.58
2018-12-14T02:55:13.557Z,1.52
2018-12-14T02:56:13.540Z,1.52
2018-12-14T02:57:13.503Z,1.56
2018-12-14T02:58:13.473Z,1.57
2018-12-14T02:59:13.443Z,1.57
2018-12-14T03:00:13.419Z,1.49
2018-12-14T03:01:13.388Z,1.60
2018-12-14T03:02:13.360Z,1.53
2018-12-14T03:03:13.330Z,1.53
2018-12-14T03:04:13.303Z,1.61
2018-12-14T03:05:13.276Z,1.61
2018-12-14T03:06:13.246Z,1.61
2018-12-14T03:07:13.217Z,1.64
2018-12-14T03:08:13.191Z,1.63
2018-12-14T03:09:13.162Z,1.66
2018-12-14T03:10:13.134Z,1.63
2018-12-14T03:11:13.106Z,1.66
2018-12-14T03:12:13.076Z,1.61
2018-12-14T03:13:13.050Z,1.60
2018-12-14T03:14:13.022Z,1.67
2018-12-14T03:15:12.993Z,1.63
2018-12-14T03:16:12.964Z,1.61
2018-12-14T03:17:12.937Z,1.61
2018-12-14T03:18:12.909Z,1.64
2018-12-14T03:19:12.880Z,1.58
2018-12-14T03:20:12.851Z,1.61
2018-12-14T03:21:12.823Z,1.60
2018-12-14T03:22:12.797Z,1.63
2018-12-14T03:23:12.769Z,1.61
2018-12-14T03:24:12.742Z,1.58
2018-12-14T03:25:12.713Z,1.64
2018-12-14T03:26:12.688Z,1.53
2018-12-14T03:27:12.654Z,1.60
2018-12-14T03:28:12.630Z,1.61
2018-12-14T03:29:12.600Z,1.61
2018-12-14T03:30:12.571Z,1.60
2018-12-14T03:31:12.552Z,1.57
2018-12-14T03:32:12.515Z,1.60
2018-12-14T03:33:12.485Z,1.63
2018-12-14T03:34:12.458Z,1.56
2018-12-14T03:35:12.428Z,1.57
2018-12-14T03:36:12.513Z,1.52
2018-12-14T03:37:12.382Z,1.52
2018-12-14T03:38:12.347Z,1.61
2018-12-14T03:39:12.316Z,1.56
2018-12-14T03:40:12.289Z,1.60
2018-12-14T03:41:12.264Z,1.58
2018-12-14T03:42:12.232Z,1.56
2018-12-14T03:43:12.204Z,1.58
2018-12-14T03:44:12.176Z,1.66
2018-12-14T03:45:12.151Z,1.63
2018-12-14T03:46:12.119Z,1.63
2018-12-14T03:47:12.091Z,1.56
2018-12-14T03:48:12.076Z,1.56
2018-12-14T03:49:12.035Z,1.63
2018-12-14T03:50:12.009Z,1.63
2018-12-14T03:51:11.977Z,1.70
2018-12-14T03:52:11.951Z,1.70
2018-12-14T03:53:11.922Z,1.75
2018-12-14T03:54:11.894Z,1.78
2018-12-14T03:55:11.866Z,1.82
2018-12-14T03:56:11.839Z,1.67
2018-12-14T03:57:11.813Z,1.67
2018-12-14T03:58:11.782Z,1.78
2018-12-14T03:59:11.753Z,1.81
2018-12-14T04:00:11.726Z,1.75
2018-12-14T04:01:11.696Z,1.78
2018-12-14T04:02:11.669Z,1.78
2018-12-14T04:03:11.640Z,1.85
2018-12-14T04:04:11.615Z,1.88
2018-12-14T04:05:11.586Z,1.88
2018-12-14T04:06:11.564Z,1.86
2018-12-14T04:07:11.535Z,1.93
2018-12-14T04:08:11.500Z,1.85
2018-12-14T04:09:11.475Z,1.89
2018-12-14T04:10:11.446Z,1.89
2018-12-14T04:11:11.418Z,1.93
2018-12-14T04:12:11.403Z,1.88
2018-12-14T04:13:11.361Z,2.03
2018-12-14T04:14:11.333Z,2.05
2018-12-14T04:15:11.304Z,1.97
2018-12-14T04:16:11.276Z,2.05
2018-12-14T04:17:11.246Z,1.93
2018-12-14T04:18:11.219Z,2.05
2018-12-14T04:19:11.192Z,2.04
2018-12-14T04:20:11.165Z,2.01
2018-12-14T04:21:11.135Z,2.10
2018-12-14T04:22:11.119Z,2.05
2018-12-14T04:23:11.079Z,2.05
2018-12-14T04:24:11.053Z,2.05
2018-12-14T04:25:11.028Z,2.10
2018-12-14T04:26:11.002Z,2.08
2018-12-14T04:27:10.969Z,2.07
2018-12-14T04:28:10.940Z,2.15
2018-12-14T04:29:10.915Z,2.15
2018-12-14T04:30:10.884Z,2.16
2018-12-14T04:31:10.860Z,2.18
2018-12-14T04:32:10.832Z,2.21
2018-12-14T04:33:10.805Z,2.19
2018-12-14T04:34:10.772Z,2.19
2018-12-14T04:35:10.746Z,2.19
2018-12-14T04:36:10.716Z,2.18
2018-12-14T04:37:10.689Z,2.15
2018-12-14T04:38:10.661Z,2.14
2018-12-14T04:39:10.632Z,2.12
2018-12-14T04:40:10.606Z,2.08
2018-12-14T04:41:10.577Z,2.05
2018-12-14T04:42:10.549Z,2.12
2018-12-14T04:43:10.596Z,2.07
2018-12-14T04:44:10.492Z,2.00
2018-12-14T04:45:10.464Z,2.04
2018-12-14T04:46:10.437Z,2.00
2018-12-14T04:47:10.409Z,1.86
2018-12-14T04:48:10.381Z,1.86
2018-12-14T04:49:10.353Z,1.86
2018-12-14T04:50:10.582Z,1.85
2018-12-14T04:51:10.298Z,1.86
2018-12-14T04:52:10.271Z,1.85
2018-12-14T04:53:10.241Z,1.88
2018-12-14T04:54:10.214Z,1.78
2018-12-14T04:55:10.185Z,1.81
2018-12-14T04:56:10.160Z,1.86
2018-12-14T04:57:10.131Z,1.79
2018-12-14T04:58:10.101Z,1.64
2018-12-14T04:59:10.073Z,1.67
2018-12-14T05:00:10.047Z,1.78
2018-12-14T05:01:10.079Z,1.64
2018-12-14T05:02:10.056Z,1.66
2018-12-14T05:03:10.007Z,1.82
2018-12-14T05:04:09.934Z,1.75
2018-12-14T05:05:09.909Z,1.76
2018-12-14T05:06:09.876Z,1.63
2018-12-14T05:07:09.875Z,1.68
2018-12-14T05:08:09.872Z,1.63
2018-12-14T05:09:09.800Z,1.60
2018-12-14T05:10:09.777Z,1.60
2018-12-14T05:11:09.741Z,1.60
2018-12-14T05:12:09.711Z,1.64
2018-12-14T05:13:09.686Z,1.58
2018-12-14T05:14:09.653Z,1.58
2018-12-14T05:15:09.627Z,1.58
2018-12-14T05:16:09.598Z,1.43
2018-12-14T05:17:09.571Z,1.49
2018-12-14T05:18:09.546Z,1.42
2018-12-14T05:19:09.512Z,1.45
2018-12-14T05:20:09.483Z,1.42
2018-12-14T05:21:09.456Z,1.45
2018-12-14T05:22:09.428Z,1.38
2018-12-14T05:23:09.399Z,1.48
2018-12-14T05:24:09.372Z,1.36
2018-12-14T05:25:09.342Z,1.34
2018-12-14T05:26:09.316Z,1.39
2018-12-14T05:27:09.285Z,1.42
2018-12-14T05:28:09.260Z,1.28
2018-12-14T05:29:09.230Z,1.30
2018-12-14T05:30:09.202Z,1.30
2018-12-14T05:31:09.171Z,1.30
2018-12-14T05:32:09.147Z,1.31
2018-12-14T05:33:09.124Z,1.36
2018-12-14T05:34:09.131Z,1.32
2018-12-14T05:35:09.064Z,1.43
2018-12-14T05:36:09.032Z,1.38
2018-12-14T05:37:09.005Z,1.39
2018-12-14T05:38:08.976Z,1.43
2018-12-14T05:39:08.946Z,1.42
2018-12-14T05:40:08.920Z,1.31
2018-12-14T05:41:08.891Z,1.32
2018-12-14T05:42:08.862Z,1.38
2018-12-14T05:43:08.833Z,1.36
2018-12-14T05:44:08.817Z,1.32
2018-12-14T05:45:08.794Z,1.38
2018-12-14T05:46:08.749Z,1.31
2018-12-14T05:47:08.719Z,1.32
2018-12-14T05:48:08.692Z,1.25
2018-12-14T05:49:08.664Z,1.38
2018-12-14T05:50:08.636Z,1.24
2018-12-14T05:51:08.607Z,1.28
2018-12-14T05:52:08.578Z,1.24
2018-12-14T05:53:08.550Z,1.30
2018-12-14T05:54:08.524Z,1.31
2018-12-14T05:55:08.496Z,1.31
2018-12-14T05:56:08.466Z,1.20
2018-12-14T05:57:08.439Z,1.30
2018-12-14T05:58:08.409Z,1.30
2018-12-14T05:59:08.380Z,1.24
2018-12-14T06:00:08.355Z,1.21
2018-12-14T06:01:08.322Z,1.20
2018-12-14T06:02:08.297Z,1.21
2018-12-14T06:03:08.268Z,1.21
2018-12-14T06:04:08.243Z,1.16
2018-12-14T06:05:08.209Z,1.18
2018-12-14T06:06:08.182Z,1.14
2018-12-14T06:07:08.157Z,1.18
2018-12-14T06:08:08.124Z,1.16
2018-12-14T06:09:08.097Z,1.18
2018-12-14T06:10:08.068Z,1.14
2018-12-14T06:11:08.039Z,1.20
2018-12-14T06:12:08.017Z,1.21
2018-12-14T06:13:09.300Z,1.14
2018-12-14T06:14:07.953Z,1.14
2018-12-14T06:15:07.926Z,1.16
2018-12-14T06:16:07.896Z,1.22
2018-12-14T06:17:07.869Z,1.16
2018-12-14T06:18:07.841Z,1.16
2018-12-14T06:19:07.811Z,1.14
2018-12-14T06:20:07.799Z,1.12
2018-12-14T06:21:07.760Z,1.20
2018-12-14T06:22:07.726Z,1.14
2018-12-14T06:23:07.698Z,1.09
2018-12-14T06:24:07.671Z,1.18
2018-12-14T06:25:07.641Z,1.04
2018-12-14T06:26:07.613Z,1.07
2018-12-14T06:27:07.583Z,1.14
2018-12-14T06:28:07.556Z,1.06
2018-12-14T06:29:07.527Z,1.12
2018-12-14T06:30:07.499Z,1.03
2018-12-14T06:31:07.470Z,1.18
2018-12-14T06:32:07.444Z,1.14
2018-12-14T06:33:07.412Z,1.13
2018-12-14T06:34:07.385Z,1.10
2018-12-14T06:35:07.357Z,1.14
2018-12-14T06:36:07.327Z,1.04
2018-12-14T06:37:07.299Z,1.14
2018-12-14T06:38:07.271Z,1.06
2018-12-14T06:39:07.243Z,1.12
2018-12-14T06:40:07.215Z,1.06
2018-12-14T06:41:07.189Z,1.06
2018-12-14T06:42:07.157Z,1.10
2018-12-14T06:43:07.128Z,1.12
2018-12-14T06:44:07.099Z,1.13
2018-12-14T06:45:07.069Z,1.12
2018-12-14T06:46:07.042Z,1.16
2018-12-14T06:47:07.012Z,1.09
2018-12-14T06:48:06.984Z,1.13
2018-12-14T06:49:06.957Z,1.14
2018-12-14T06:50:06.960Z,1.13
2018-12-14T06:51:06.910Z,1.10
2018-12-14T06:52:06.871Z,1.13
2018-12-14T06:53:06.842Z,1.04
2018-12-14T06:54:06.815Z,1.13
2018-12-14T06:55:06.785Z,1.10
2018-12-14T06:56:06.778Z,1.16
2018-12-14T06:57:06.727Z,1.13
2018-12-14T06:58:06.700Z,1.18
2018-12-14T06:59:06.671Z,1.13
2018-12-14T07:00:06.920Z,1.14
2018-12-14T07:01:06.613Z,1.14
2018-12-14T07:02:06.628Z,1.24
2018-12-14T07:03:06.557Z,1.34
2018-12-14T07:04:06.530Z,1.28
2018-12-14T07:05:06.501Z,1.16
2018-12-14T07:06:06.475Z,1.32
2018-12-14T07:07:06.442Z,1.18
2018-12-14T07:08:06.415Z,1.18
2018-12-14T07:09:06.388Z,1.18
2018-12-14T07:10:06.357Z,1.18
2018-12-14T07:11:06.329Z,1.21
2018-12-14T07:12:06.299Z,1.31
2018-12-14T07:13:06.270Z,1.32
2018-12-14T07:14:06.244Z,1.25
2018-12-14T07:15:06.224Z,1.24
2018-12-14T07:16:06.186Z,1.22
2018-12-14T07:17:06.158Z,1.30
2018-12-14T07:18:06.127Z,1.36
2018-12-14T07:19:06.098Z,1.28
2018-12-14T07:20:06.071Z,1.32
2018-12-14T07:21:06.043Z,1.28
2018-12-14T07:22:06.014Z,1.42
2018-12-14T07:23:05.987Z,1.34
2018-12-14T07:24:05.957Z,1.36
2018-12-14T07:25:05.929Z,1.31
2018-12-14T07:26:05.901Z,1.32
2018-12-14T07:27:05.871Z,1.31
2018-12-14T07:28:05.842Z,1.31
2018-12-14T07:29:05.814Z,1.43
2018-12-14T07:30:05.787Z,1.42
2018-12-14T07:31:05.756Z,1.36
2018-12-14T07:32:05.727Z,1.42
2018-12-14T07:33:05.700Z,1.34
2018-12-14T07:34:05.672Z,1.38
2018-12-14T07:35:05.643Z,1.48
2018-12-14T07:36:05.628Z,1.38
2018-12-14T07:37:05.591Z,1.39
2018-12-14T07:38:05.560Z,1.43
2018-12-14T07:39:05.529Z,1.32
2018-12-14T07:40:05.502Z,1.30
2018-12-14T07:41:05.473Z,1.28
2018-12-14T07:42:05.445Z,1.38
2018-12-14T07:43:05.416Z,1.32
2018-12-14T07:44:05.390Z,1.40
2018-12-14T07:45:05.359Z,1.36
2018-12-14T07:46:05.332Z,1.39
2018-12-14T07:47:11.463Z,1.40
2018-12-14T07:48:05.275Z,1.38
2018-12-14T07:49:05.246Z,1.39
2018-12-14T07:50:05.217Z,1.46
2018-12-14T07:51:05.188Z,1.45
2018-12-14T07:52:05.162Z,1.38
2018-12-14T07:53:09.099Z,1.49
2018-12-14T07:54:05.106Z,1.49
2018-12-14T07:55:05.074Z,1.49
2018-12-14T07:56:05.047Z,1.49
2018-12-14T07:57:05.020Z,1.45
2018-12-14T07:58:04.990Z,1.48
2018-12-14T07:59:04.960Z,1.45
2018-12-14T08:00:04.932Z,1.43
2018-12-14T08:01:04.909Z,1.48
2018-12-14T08:02:04.875Z,1.57
2018-12-14T08:03:04.847Z,1.56
2018-12-14T08:04:04.819Z,1.56
2018-12-14T08:05:04.791Z,1.53
2018-12-14T08:06:04.763Z,1.52
2018-12-14T08:07:04.735Z,1.53
2018-12-14T08:08:04.706Z,1.57
2018-12-14T08:09:04.678Z,1.63
2018-12-14T08:10:04.650Z,1.58
2018-12-14T08:11:04.623Z,1.58
2018-12-14T08:12:04.593Z,1.60
2018-12-14T08:13:04.564Z,1.63
2018-12-14T08:14:04.539Z,1.52
2018-12-14T08:15:11.098Z,1.66
2018-12-14T08:16:04.480Z,1.56
2018-12-14T08:17:04.452Z,1.60
2018-12-14T08:18:04.424Z,1.61
2018-12-14T08:19:04.394Z,1.61
2018-12-14T08:20:04.392Z,1.53
2018-12-14T08:21:04.339Z,1.57
2018-12-14T08:22:04.311Z,1.56
2018-12-14T08:23:04.285Z,1.46
2018-12-14T08:24:04.253Z,1.52
2018-12-14T08:25:04.226Z,1.52
2018-12-14T08:26:04.197Z,1.58
2018-12-14T08:27:04.169Z,1.52
2018-12-14T08:28:04.150Z,1.45
2018-12-14T08:29:04.111Z,1.49
2018-12-14T08:30:04.085Z,1.45
2018-12-14T08:31:04.085Z,1.49
2018-12-14T08:32:04.027Z,1.48
2018-12-14T08:33:03.997Z,1.49
2018-12-14T08:34:03.969Z,1.48
2018-12-14T08:35:03.941Z,1.49
2018-12-14T08:36:03.912Z,1.45
2018-12-14T08:37:03.883Z,1.45
2018-12-14T08:38:03.856Z,1.42
2018-12-14T08:39:03.827Z,1.42
2018-12-14T08:40:03.800Z,1.42
2018-12-14T08:41:03.770Z,1.45
2018-12-14T08:42:03.743Z,1.48
2018-12-14T08:43:03.712Z,1.42
2018-12-14T08:44:03.686Z,1.45
2018-12-14T08:45:03.657Z,1.49
2018-12-14T08:46:03.629Z,1.49
2018-12-14T08:47:03.600Z,1.46
2018-12-14T08:48:03.573Z,1.45
2018-12-14T08:49:03.543Z,1.49
2018-12-14T08:50:03.515Z,1.49
2018-12-14T08:51:03.486Z,1.42
2018-12-14T08:52:03.463Z,1.48
2018-12-14T08:53:03.431Z,1.45
2018-12-14T08:54:03.401Z,1.48
2018-12-14T08:55:03.374Z,1.49
2018-12-14T08:56:03.346Z,1.40
2018-12-14T08:57:03.317Z,1.50
2018-12-14T08:58:03.290Z,1.48
2018-12-14T08:59:03.275Z,1.56
2018-12-14T09:00:03.232Z,1.48
2018-12-14T09:01:03.205Z,1.57
2018-12-14T09:02:03.178Z,1.56
2018-12-14T09:03:03.146Z,1.58
2018-12-14T09:04:03.118Z,1.57
2018-12-14T09:05:03.091Z,1.52
2018-12-14T09:06:03.070Z,1.60
2018-12-14T09:07:03.033Z,1.56
2018-12-14T09:08:03.005Z,1.61
2018-12-14T09:09:02.977Z,1.61
2018-12-14T09:10:02.950Z,1.64
2018-12-14T09:11:02.921Z,1.64
2018-12-14T09:12:02.892Z,1.60
2018-12-14T09:13:02.863Z,1.58
2018-12-14T09:14:02.837Z,1.63
2018-12-14T09:15:02.810Z,1.63
2018-12-14T09:16:02.779Z,1.68
2018-12-14T09:17:02.751Z,1.74
2018-12-14T09:18:02.725Z,1.70
2018-12-14T09:19:02.696Z,1.78
2018-12-14T09:20:02.666Z,1.71
2018-12-14T09:21:02.641Z,1.79
2018-12-14T09:22:02.610Z,1.70
2018-12-14T09:23:02.581Z,1.66
2018-12-14T09:24:02.552Z,1.81
2018-12-14T09:25:02.526Z,1.78
2018-12-14T09:26:02.497Z,1.76
2018-12-14T09:27:02.467Z,1.79
2018-12-14T09:28:02.440Z,1.95
2018-12-14T09:29:02.414Z,1.82
2018-12-14T09:30:02.386Z,1.81
2018-12-14T09:31:02.355Z,1.88
2018-12-14T09:32:02.327Z,1.89
2018-12-14T09:33:02.308Z,1.86
2018-12-14T09:34:02.278Z,2.04
2018-12-14T09:35:02.250Z,2.00
2018-12-14T09:36:02.215Z,2.00
2018-12-14T09:37:02.187Z,1.97
2018-12-14T09:38:02.159Z,1.95
2018-12-14T09:39:02.130Z,2.07
2018-12-14T09:40:02.111Z,2.07
2018-12-14T09:41:02.074Z,2.07
2018-12-14T09:42:02.046Z,2.15
2018-12-14T09:43:02.020Z,2.18
2018-12-14T09:44:01.990Z,2.12
2018-12-14T09:45:01.962Z,2.16
2018-12-14T09:46:01.935Z,2.21
2018-12-14T09:47:01.907Z,2.28
2018-12-14T09:48:01.879Z,2.22
2018-12-14T09:49:01.850Z,2.28
2018-12-14T09:50:01.827Z,2.26
2018-12-14T09:51:01.795Z,2.30
2018-12-14T09:52:01.772Z,2.34
2018-12-14T09:53:01.746Z,2.30
2018-12-14T09:54:01.710Z,2.33
2018-12-14T09:55:01.681Z,2.30
2018-12-14T09:56:01.655Z,2.26
2018-12-14T09:57:01.626Z,2.34
2018-12-14T09:58:01.598Z,2.41
2018-12-14T09:59:01.570Z,2.36
2018-12-14T10:00:01.544Z,2.36
2018-12-14T10:01:01.515Z,2.30
2018-12-14T10:02:01.488Z,2.40
2018-12-14T10:03:01.459Z,2.32
2018-12-14T10:04:01.431Z,2.34
2018-12-14T10:05:01.403Z,2.28
2018-12-14T10:06:01.376Z,2.34
2018-12-14T10:07:01.347Z,2.39
2018-12-14T10:08:01.319Z,2.43
2018-12-14T10:09:01.292Z,2.50
2018-12-14T10:10:01.266Z,2.52
2018-12-14T10:11:01.238Z,2.55
2018-12-14T10:12:01.208Z,2.68
2018-12-14T10:13:01.183Z,2.76
2018-12-14T10:14:01.155Z,2.77
2018-12-14T10:15:01.126Z,2.93
2018-12-14T10:16:01.097Z,3.00
2018-12-14T10:17:01.073Z,3.09
2018-12-14T10:18:01.043Z,3.11
2018-12-14T10:19:01.014Z,3.13
2018-12-14T10:20:00.986Z,3.13
2018-12-14T10:21:00.960Z,3.27
2018-12-14T10:22:00.934Z,3.24
2018-12-14T10:23:00.904Z,3.21
2018-12-14T10:24:00.877Z,3.27
2018-12-14T10:25:00.850Z,3.21
2018-12-14T10:26:00.822Z,3.29
2018-12-14T10:27:00.795Z,3.26
2018-12-14T10:28:00.767Z,3.21
2018-12-14T10:29:00.741Z,3.19
2018-12-14T10:30:00.740Z,3.21
2018-12-14T10:31:00.686Z,3.24
2018-12-14T10:32:00.662Z,3.24
2018-12-14T10:33:00.632Z,3.24
2018-12-14T10:34:00.607Z,3.12
2018-12-14T10:35:00.604Z,3.12
2018-12-14T10:36:00.548Z,3.11
2018-12-14T10:37:00.523Z,3.15
2018-12-14T10:38:00.494Z,3.18
2018-12-14T10:39:00.467Z,3.19
2018-12-14T10:40:00.439Z,3.22
2018-12-14T10:41:00.412Z,3.26
2018-12-14T10:42:00.390Z,3.22
2018-12-14T10:43:00.359Z,3.41
2018-12-14T10:44:00.333Z,3.41
2018-12-14T10:45:00.304Z,3.48
2018-12-14T10:46:00.276Z,3.40
2018-12-14T10:47:00.249Z,3.40
2018-12-14T10:48:00.221Z,3.49
2018-12-14T10:49:00.194Z,3.46
2018-12-14T10:50:00.168Z,3.52
2018-12-14T10:51:00.144Z,3.48
2018-12-14T10:52:00.117Z,3.56
2018-12-14T10:53:00.087Z,3.63
2018-12-14T10:54:00.059Z,3.56
2018-12-14T10:55:00.031Z,3.63
2018-12-14T10:56:00.008Z,3.61
2018-12-14T10:56:59.976Z,3.63
2018-12-14T10:57:59.952Z,3.71
2018-12-14T10:58:59.922Z,3.63
2018-12-14T10:59:59.895Z,3.71
2018-12-14T11:00:59.869Z,3.81
2018-12-14T11:01:59.843Z,3.74
2018-12-14T11:02:59.813Z,3.77
2018-12-14T11:03:59.787Z,3.78
2018-12-14T11:04:59.761Z,3.88
2018-12-14T11:05:59.734Z,3.92
2018-12-14T11:06:59.710Z,3.92
2018-12-14T11:07:59.680Z,3.89
2018-12-14T11:08:59.654Z,4.00
2018-12-14T11:09:59.646Z,4.02
2018-12-14T11:10:59.599Z,4.03
2018-12-14T11:11:59.573Z,4.06
2018-12-14T11:12:59.550Z,4.03
2018-12-14T11:13:59.519Z,4.06
2018-12-14T11:14:59.493Z,4.07
2018-12-14T11:15:59.466Z,4.09
2018-12-14T11:16:59.439Z,4.00
2018-12-14T11:17:59.414Z,4.04
2018-12-14T11:18:59.386Z,3.96
2018-12-14T11:19:59.360Z,4.04
2018-12-14T11:20:59.332Z,4.09
2018-12-14T11:21:59.305Z,4.10
2018-12-14T11:22:59.279Z,4.02
2018-12-14T11:23:59.252Z,4.02
2018-12-14T11:24:59.226Z,4.03
2018-12-14T11:25:59.200Z,4.04
2018-12-14T11:26:59.195Z,4.04
2018-12-14T11:27:59.145Z,4.12
2018-12-14T11:28:59.119Z,4.09
2018-12-14T11:29:59.092Z,4.06
2018-12-14T11:30:59.067Z,4.07
2018-12-14T11:31:59.037Z,4.02
2018-12-14T11:32:59.012Z,4.07
2018-12-14T11:33:58.988Z,4.06
2018-12-14T11:34:58.957Z,4.07
2018-12-14T11:35:58.939Z,4.10
2018-12-14T11:36:58.906Z,4.06
2018-12-14T11:37:58.907Z,4.10
2018-12-14T11:38:58.851Z,4.06
2018-12-14T11:39:58.826Z,4.07
2018-12-14T11:40:58.800Z,4.04
2018-12-14T11:41:58.814Z,4.02
2018-12-14T11:42:58.767Z,4.12
2018-12-14T11:43:58.719Z,4.03
2018-12-14T11:44:58.692Z,4.10
2018-12-14T11:45:58.669Z,4.02
2018-12-14T11:46:58.638Z,4.06
2018-12-14T11:47:58.621Z,4.04
2018-12-14T11:48:58.585Z,4.13
2018-12-14T11:49:58.562Z,4.14
2018-12-14T11:50:58.534Z,4.13
2018-12-14T11:51:58.506Z,4.13
2018-12-14T11:52:58.480Z,4.25
2018-12-14T11:53:58.458Z,4.24
2018-12-14T11:54:58.426Z,4.24
2018-12-14T11:55:58.402Z,4.31
2018-12-14T11:56:58.376Z,4.30
2018-12-14T11:57:58.347Z,4.30
2018-12-14T11:58:58.319Z,4.31
2018-12-14T11:59:58.294Z,4.30
2018-12-14T12:00:58.268Z,4.30
2018-12-14T12:01:58.246Z,4.32
2018-12-14T12:02:58.219Z,4.32
2018-12-14T12:03:58.191Z,4.32
2018-12-14T12:04:58.164Z,4.27
2018-12-14T12:05:58.136Z,4.38
2018-12-14T12:06:58.109Z,4.36
2018-12-14T12:07:58.085Z,4.36
2018-12-14T12:08:58.056Z,4.31
2018-12-14T12:09:58.031Z,4.32
2018-12-14T12:10:58.005Z,4.30
2018-12-14T12:11:57.978Z,4.30
2018-12-14T12:12:57.955Z,4.22
2018-12-14T12:13:57.924Z,4.31
2018-12-14T12:14:57.897Z,4.21
2018-12-14T12:15:57.944Z,4.22
2018-12-14T12:16:57.848Z,4.30
2018-12-14T12:17:57.818Z,4.22
2018-12-14T12:18:57.792Z,4.34
2018-12-14T12:19:57.767Z,4.27
2018-12-14T12:20:57.738Z,4.28
2018-12-14T12:21:57.713Z,4.27
2018-12-14T12:22:57.685Z,4.32
2018-12-14T12:23:57.658Z,4.32
2018-12-14T12:24:57.636Z,4.34
2018-12-14T12:25:57.612Z,4.30
2018-12-14T12:26:57.579Z,4.30
2018-12-14T12:27:57.555Z,4.36
2018-12-14T12:28:57.527Z,4.32
2018-12-14T12:29:57.502Z,4.30
2018-12-14T12:30:57.474Z,4.36
2018-12-14T12:31:57.447Z,4.30
2018-12-14T12:32:57.421Z,4.32
2018-12-14T12:33:57.395Z,4.32
2018-12-14T12:34:57.367Z,4.27
2018-12-14T12:35:57.341Z,4.25
2018-12-14T12:36:57.320Z,4.21
2018-12-14T12:37:57.290Z,4.20
2018-12-14T12:38:57.263Z,4.21
2018-12-14T12:39:57.252Z,4.16
2018-12-14T12:40:57.210Z,4.21
2018-12-14T12:41:57.184Z,4.22
2018-12-14T12:42:57.161Z,4.12
2018-12-14T12:43:57.133Z,4.20
2018-12-14T12:44:57.103Z,4.18
2018-12-14T12:45:57.077Z,4.20
2018-12-14T12:46:57.058Z,4.21
2018-12-14T12:47:57.211Z,4.34
2018-12-14T12:48:57.211Z,4.22
2018-12-14T12:49:57.113Z,4.20
2018-12-14T12:51:02.865Z,4.20
2018-12-14T12:51:56.936Z,4.18
2018-12-14T12:52:56.912Z,4.31
2018-12-14T12:53:56.879Z,4.25
2018-12-14T12:54:56.837Z,4.18
2018-12-14T12:55:56.811Z,4.24
2018-12-14T12:56:56.786Z,4.25
2018-12-14T12:57:56.758Z,4.28
2018-12-14T12:58:56.732Z,4.20
2018-12-14T12:59:56.704Z,4.24
2018-12-14T13:00:56.778Z,4.20
2018-12-14T13:01:56.653Z,4.20
2018-12-14T13:02:56.627Z,4.18
2018-12-14T13:03:56.600Z,4.22
2018-12-14T13:04:56.573Z,4.20
2018-12-14T13:05:56.546Z,4.24
2018-12-14T13:06:56.520Z,4.20
2018-12-14T13:07:56.493Z,4.22
2018-12-14T13:08:56.467Z,4.22
2018-12-14T13:09:56.441Z,4.27
2018-12-14T13:10:56.416Z,4.24
2018-12-14T13:11:56.387Z,4.16
2018-12-14T13:12:56.361Z,4.13
2018-12-14T13:13:56.336Z,4.13
2018-12-14T13:14:56.309Z,4.16
2018-12-14T13:15:56.289Z,4.13
2018-12-14T13:16:56.255Z,4.09
2018-12-14T13:17:56.231Z,4.10